Terminal Aerodrome Forecast
Issued by NWS

Home | Current Version | Previous Version | Text Only | Print | Product List | Glossary On
Versions: 1 2 3 4 5 6 7 8 9 10 11 12 13 14 15 16 17 18 19
000
FTUS45 KSLC 300528
TAFBCE
TAF
KBCE 300528Z 3006/3106 28005KT P6SM SKC
     FM301500 13009KT P6SM FEW100
     FM301900 17012KT P6SM VCSH SCT070 BKN100
     FM310100 28007KT P6SM SCT070 SCT100=

USA.gov is the U.S. government's official web portal to all federal, state and local government web resources and services.